createdAt,value
2023-04-04T00:02:04.253Z,11.20
2023-04-04T00:04:37.470Z,11.70
2023-04-04T00:07:10.442Z,11.05
2023-04-04T00:09:43.568Z,11.10
2023-04-04T00:12:17.894Z,10.32
2023-04-04T00:14:51.309Z,11.12
2023-04-04T00:17:24.811Z,10.65
2023-04-04T00:19:58.325Z,10.88
2023-04-04T00:22:31.839Z,12.03
2023-04-04T00:25:05.066Z,11.57
2023-04-04T00:27:38.541Z,11.03
2023-04-04T00:30:13.400Z,11.93
2023-04-04T00:32:47.455Z,11.18
2023-04-04T00:35:20.610Z,12.33
2023-04-04T00:37:53.958Z,10.93
2023-04-04T00:40:26.886Z,11.60
2023-04-04T00:43:02.207Z,12.13
2023-04-04T00:45:36.648Z,10.53
2023-04-04T00:48:09.509Z,11.12
2023-04-04T00:50:42.923Z,11.97
2023-04-04T00:53:16.622Z,12.00
2023-04-04T00:55:49.602Z,12.37
2023-04-04T00:58:22.829Z,11.75
2023-04-04T01:00:56.013Z,12.05
2023-04-04T01:03:29.875Z,12.70
2023-04-04T01:06:04.443Z,13.32
2023-04-04T01:11:14.383Z,13.65
2023-04-04T01:13:47.702Z,13.28
2023-04-04T01:16:21.903Z,13.60
2023-04-04T01:18:55.304Z,13.05
2023-04-04T01:21:29.840Z,13.30
2023-04-04T01:24:04.819Z,13.75
2023-04-04T01:26:39.788Z,13.15
2023-04-04T01:29:12.728Z,13.63
2023-04-04T01:31:56.693Z,14.68
2023-04-04T01:34:53.348Z,13.53
2023-04-04T01:37:48.835Z,13.38
2023-04-04T01:40:35.835Z,13.13
2023-04-04T01:43:10.599Z,13.75
2023-04-04T01:45:46.437Z,13.78
2023-04-04T01:48:19.718Z,14.47
2023-04-04T01:50:54.331Z,13.58
2023-04-04T01:53:28.848Z,14.15
2023-04-04T01:56:02.819Z,13.07
2023-04-04T01:58:38.026Z,14.05
2023-04-04T02:01:11.283Z,13.78
2023-04-04T02:06:17.932Z,14.50
2023-04-04T02:08:52.348Z,15.40
2023-04-04T02:11:26.265Z,14.37
2023-04-04T02:13:59.397Z,14.80
2023-04-04T02:16:33.795Z,14.13
2023-04-04T02:19:06.567Z,15.32
2023-04-04T02:21:41.747Z,14.93
2023-04-04T02:24:14.644Z,14.40
2023-04-04T02:26:47.525Z,14.78
2023-04-04T02:29:20.988Z,14.38
2023-04-04T02:31:53.961Z,15.13
2023-04-04T02:34:26.877Z,15.00
2023-04-04T02:37:01.012Z,14.60
2023-04-04T02:39:34.516Z,15.05
2023-04-04T02:42:07.810Z,14.33
2023-04-04T02:44:40.986Z,15.20
2023-04-04T02:47:15.446Z,14.78
2023-04-04T02:49:48.686Z,14.95
2023-04-04T02:52:23.315Z,14.47
2023-04-04T02:54:56.158Z,15.38
2023-04-04T02:57:30.922Z,14.68
2023-04-04T03:00:04.781Z,14.83
2023-04-04T03:05:11.546Z,14.50
2023-04-04T03:07:44.474Z,15.63
2023-04-04T03:10:17.379Z,15.38
2023-04-04T03:12:50.245Z,14.87
2023-04-04T03:15:24.014Z,14.53
2023-04-04T03:20:31.802Z,14.35
2023-04-04T03:23:04.584Z,14.33
2023-04-04T03:25:37.469Z,14.43
2023-04-04T03:30:45.149Z,14.63
2023-04-04T03:33:18.470Z,16.32
2023-04-04T03:35:51.511Z,15.95
2023-04-04T03:38:25.962Z,13.70
2023-04-04T03:41:05.899Z,15.03
2023-04-04T03:43:39.357Z,16.05
2023-04-04T03:46:14.369Z,15.68
2023-04-04T03:48:48.947Z,14.50
2023-04-04T03:51:28.879Z,16.23
2023-04-04T03:54:01.842Z,14.68
2023-04-04T03:56:35.085Z,14.85
2023-04-04T03:59:09.906Z,14.87
2023-04-04T04:01:42.891Z,16.55
2023-04-04T04:04:16.470Z,15.58
2023-04-04T04:06:49.965Z,14.68
2023-04-04T04:09:23.260Z,14.47
2023-04-04T04:11:56.985Z,15.85
2023-04-04T04:14:29.993Z,16.40
2023-04-04T04:17:04.985Z,17.17
2023-04-04T04:19:39.655Z,16.65
2023-04-04T04:22:13.265Z,15.68
2023-04-04T04:24:46.424Z,16.50
2023-04-04T04:27:19.851Z,15.63
2023-04-04T04:32:27.630Z,15.28
2023-04-04T04:35:01.763Z,15.65
2023-04-04T04:37:36.833Z,15.90
2023-04-04T04:40:11.468Z,15.25
2023-04-04T04:42:47.723Z,14.83
2023-04-04T04:45:22.936Z,16.25
2023-04-04T04:47:57.783Z,16.25
2023-04-04T04:50:31.346Z,16.23
2023-04-04T04:53:05.137Z,15.23
2023-04-04T04:55:38.873Z,16.40
2023-04-04T04:58:14.361Z,15.98
2023-04-04T05:00:49.740Z,16.07
2023-04-04T05:03:23.385Z,14.60
2023-04-04T05:05:57.634Z,14.90
2023-04-04T05:08:30.730Z,15.13
2023-04-04T05:11:09.349Z,14.15
2023-04-04T05:13:43.364Z,15.58
2023-04-04T05:16:16.634Z,15.18
2023-04-04T05:18:50.490Z,15.78
2023-04-04T05:21:24.035Z,15.80
2023-04-04T05:23:59.001Z,15.32
2023-04-04T05:26:32.818Z,16.42
2023-04-04T05:29:05.971Z,17.02
2023-04-04T05:31:39.269Z,16.27
2023-04-04T05:34:14.093Z,18.32
2023-04-04T05:36:47.796Z,17.42
2023-04-04T05:39:21.734Z,16.95
2023-04-04T05:41:59.267Z,18.10
2023-04-04T05:44:33.972Z,18.70
2023-04-04T05:47:07.882Z,17.65
2023-04-04T05:49:42.436Z,18.73
2023-04-04T05:52:17.280Z,17.67
2023-04-04T05:57:25.558Z,17.27
2023-04-04T06:00:00.280Z,18.75
2023-04-04T06:02:35.609Z,16.70
2023-04-04T06:05:10.651Z,15.75
2023-04-04T06:07:44.440Z,16.32
2023-04-04T06:10:17.877Z,17.10
2023-04-04T06:12:51.758Z,18.73
2023-04-04T06:15:25.845Z,18.00
2023-04-04T06:17:59.919Z,18.20
2023-04-04T06:20:35.871Z,17.07
2023-04-04T06:23:10.385Z,17.52
2023-04-04T06:25:45.015Z,17.00
2023-04-04T06:30:52.754Z,16.00
2023-04-04T06:33:28.392Z,15.93
2023-04-04T06:36:01.739Z,15.15
2023-04-04T06:38:35.465Z,16.55
2023-04-04T06:41:13.546Z,16.60
2023-04-04T06:43:48.206Z,15.80
2023-04-04T06:46:22.014Z,14.85
2023-04-04T06:48:55.336Z,16.25
2023-04-04T06:51:29.330Z,15.48
2023-04-04T06:54:03.403Z,14.05
2023-04-04T06:56:37.004Z,12.58
2023-04-04T06:59:13.041Z,14.68
2023-04-04T07:01:46.995Z,14.03
2023-04-04T07:04:22.853Z,13.18
2023-04-04T07:06:56.003Z,12.35
2023-04-04T07:09:29.845Z,11.10
2023-04-04T07:12:03.060Z,11.83
2023-04-04T07:14:36.867Z,11.88
2023-04-04T07:17:17.465Z,11.70
2023-04-04T07:19:45.122Z,11.95
2023-04-04T07:22:18.097Z,12.10
2023-04-04T07:24:51.772Z,11.80
2023-04-04T07:27:25.021Z,12.15
2023-04-04T07:29:58.507Z,11.30
2023-04-04T07:32:31.755Z,13.07
2023-04-04T07:35:07.236Z,13.25
2023-04-04T07:37:40.965Z,11.83
2023-04-04T07:40:14.566Z,12.05
2023-04-04T07:42:50.728Z,12.25
2023-04-04T07:45:23.765Z,11.15
2023-04-04T07:47:56.843Z,12.37
2023-04-04T07:50:29.920Z,12.33
2023-04-04T07:53:03.835Z,12.07
2023-04-04T07:55:36.922Z,11.95
2023-04-04T07:58:11.129Z,13.70
2023-04-04T08:00:44.122Z,13.10
2023-04-04T08:03:19.599Z,12.35
2023-04-04T08:05:52.967Z,12.68
2023-04-04T08:08:26.295Z,13.05
2023-04-04T08:10:59.483Z,11.78
2023-04-04T08:13:33.452Z,12.28
2023-04-04T08:16:06.845Z,12.15
2023-04-04T08:18:41.063Z,12.78
2023-04-04T08:21:16.110Z,13.95
2023-04-04T08:23:50.216Z,12.18
2023-04-04T08:26:23.577Z,13.45
2023-04-04T08:28:56.622Z,12.93
2023-04-04T08:31:31.086Z,11.45
2023-04-04T08:34:06.423Z,12.55
2023-04-04T08:36:39.852Z,12.88
2023-04-04T08:39:13.894Z,12.70
2023-04-04T08:41:48.605Z,11.45
2023-04-04T08:44:23.212Z,12.53
2023-04-04T08:46:57.124Z,13.08
2023-04-04T08:49:35.473Z,13.18
2023-04-04T08:52:09.570Z,13.10
2023-04-04T08:54:44.221Z,12.53
2023-04-04T08:57:17.905Z,12.65
2023-04-04T08:59:51.244Z,12.05
2023-04-04T09:02:47.158Z,12.47
2023-04-04T09:05:21.396Z,12.93
2023-04-04T09:07:56.702Z,13.38
2023-04-04T09:10:30.210Z,12.10
2023-04-04T09:13:14.717Z,11.20
2023-04-04T09:15:45.000Z,12.13
2023-04-04T09:18:19.266Z,11.93
2023-04-04T09:20:53.607Z,12.03
2023-04-04T09:23:27.624Z,11.03
2023-04-04T09:26:08.282Z,12.18
2023-04-04T09:28:42.665Z,10.88
2023-04-04T09:31:17.653Z,9.50
2023-04-04T09:33:53.336Z,9.10
2023-04-04T09:36:28.303Z,10.00
2023-04-04T09:39:02.170Z,10.30
2023-04-04T09:41:35.751Z,10.05
2023-04-04T09:44:13.425Z,9.35
2023-04-04T09:46:46.635Z,9.60
2023-04-04T09:49:22.945Z,9.38
2023-04-04T09:51:56.870Z,11.22
2023-04-04T09:54:30.825Z,10.60
2023-04-04T09:57:04.967Z,10.63
2023-04-04T09:59:39.179Z,9.13
2023-04-04T10:02:12.725Z,10.05
2023-04-04T10:04:48.893Z,9.60
2023-04-04T10:07:22.077Z,9.93
2023-04-04T10:09:55.166Z,9.83
2023-04-04T10:12:29.189Z,11.22
2023-04-04T10:15:03.521Z,13.90
2023-04-04T10:17:42.810Z,10.70
2023-04-04T10:20:16.417Z,10.38
2023-04-04T10:22:52.152Z,9.00
2023-04-04T10:25:26.010Z,8.45
2023-04-04T10:27:58.863Z,8.43
2023-04-04T10:30:33.255Z,10.98
2023-04-04T10:33:17.672Z,10.35
2023-04-04T10:35:54.261Z,9.87
2023-04-04T10:38:30.571Z,10.30
2023-04-04T10:41:04.950Z,10.13
2023-04-04T10:43:45.505Z,10.82
2023-04-04T10:46:20.775Z,11.08
2023-04-04T10:48:54.498Z,10.00
2023-04-04T10:51:27.778Z,9.05
2023-04-04T10:54:01.512Z,9.60
2023-04-04T10:56:36.001Z,9.10
2023-04-04T10:59:17.639Z,9.13
2023-04-04T11:01:53.478Z,8.83
2023-04-04T11:04:42.984Z,8.88
2023-04-04T11:07:18.315Z,9.35
2023-04-04T11:09:57.274Z,9.50
2023-04-04T11:12:38.346Z,9.83
2023-04-04T11:15:14.704Z,10.55
2023-04-04T11:18:17.280Z,13.68
2023-04-04T11:20:41.061Z,10.20
2023-04-04T11:23:27.384Z,9.88
2023-04-04T11:26:01.470Z,10.03
2023-04-04T11:28:46.614Z,11.28
2023-04-04T11:31:24.310Z,9.63
2023-04-04T11:34:11.974Z,8.50
2023-04-04T11:36:52.294Z,8.43
2023-04-04T11:39:33.883Z,9.20
2023-04-04T11:42:16.100Z,8.60
2023-04-04T11:45:04.584Z,8.73
2023-04-04T11:47:38.223Z,6.72
2023-04-04T11:50:13.930Z,6.20
2023-04-04T11:52:47.019Z,5.75
2023-04-04T11:55:27.203Z,5.97
2023-04-04T11:58:13.044Z,5.60
2023-04-04T12:00:48.312Z,6.20
2023-04-04T12:03:22.258Z,6.87
2023-04-04T12:05:55.769Z,5.35
2023-04-04T12:08:30.868Z,6.58
2023-04-04T12:11:06.857Z,5.33
2023-04-04T12:13:47.146Z,4.70
2023-04-04T12:16:23.231Z,3.58
2023-04-04T12:18:58.307Z,5.67
2023-04-04T12:21:33.868Z,4.37
2023-04-04T12:24:09.778Z,4.15
2023-04-04T12:26:46.117Z,3.22
2023-04-04T12:29:22.471Z,3.50
2023-04-04T12:31:57.880Z,3.70
2023-04-04T12:34:39.198Z,2.62
2023-04-04T12:37:14.652Z,2.58
2023-04-04T12:39:52.684Z,2.37
2023-04-04T12:42:26.739Z,3.15
2023-04-04T12:44:59.741Z,2.17
2023-04-04T12:47:33.423Z,2.20
2023-04-04T12:50:08.746Z,3.50
2023-04-04T12:52:42.761Z,2.20
2023-04-04T12:55:15.993Z,4.22
2023-04-04T12:57:50.529Z,2.42
2023-04-04T13:00:24.211Z,3.90
2023-04-04T13:02:58.690Z,3.02
2023-04-04T13:05:42.506Z,2.10
2023-04-04T13:08:16.221Z,1.87
2023-04-04T13:11:05.727Z,1.70
2023-04-04T13:13:41.453Z,1.95
2023-04-04T13:16:18.706Z,1.95
2023-04-04T13:18:52.593Z,1.55
2023-04-04T13:21:26.504Z,1.82
2023-04-04T13:26:32.322Z,2.08
2023-04-04T13:29:05.672Z,9.20
2023-04-04T13:31:40.108Z,2.10
2023-04-04T13:34:13.132Z,2.15
2023-04-04T13:36:47.469Z,1.65
2023-04-04T13:39:21.272Z,1.77
2023-04-04T13:41:54.402Z,1.20
2023-04-04T13:44:28.220Z,3.40
2023-04-04T13:47:01.006Z,1.50
2023-04-04T13:49:33.927Z,1.60
2023-04-04T13:52:06.977Z,1.25
2023-04-04T13:54:40.178Z,1.17
2023-04-04T13:57:13.585Z,1.40
2023-04-04T13:59:46.408Z,2.67
2023-04-04T14:02:20.131Z,2.20
2023-04-04T14:04:53.357Z,5.08
2023-04-04T14:07:27.365Z,1.90
2023-04-04T14:10:01.596Z,3.25
2023-04-04T14:12:35.333Z,3.03
2023-04-04T14:15:09.623Z,4.62
2023-04-04T14:17:43.743Z,3.67
2023-04-04T14:20:17.025Z,1.60
2023-04-04T14:22:50.038Z,1.73
2023-04-04T14:25:23.527Z,2.10
2023-04-04T14:27:57.709Z,1.50
2023-04-04T14:30:30.929Z,1.52
2023-04-04T14:33:04.706Z,1.60
2023-04-04T14:38:11.747Z,1.80
2023-04-04T14:40:45.685Z,1.60
2023-04-04T14:43:18.676Z,2.37
2023-04-04T14:45:52.678Z,1.53
2023-04-04T14:48:26.290Z,2.08
2023-04-04T14:50:59.527Z,1.37
2023-04-04T14:53:34.222Z,2.25
2023-04-04T14:56:08.191Z,1.90
2023-04-04T14:58:42.143Z,1.50
2023-04-04T15:03:51.393Z,1.60
2023-04-04T15:08:57.844Z,2.05
2023-04-04T15:11:30.861Z,2.20
2023-04-04T15:16:37.380Z,4.15
2023-04-04T15:19:11.688Z,3.02
2023-04-04T15:21:45.273Z,3.12
2023-04-04T15:24:18.598Z,3.10
2023-04-04T15:26:52.749Z,4.40
2023-04-04T15:29:27.294Z,2.60
2023-04-04T15:32:00.537Z,2.47
2023-04-04T15:34:33.956Z,2.87
2023-04-04T15:37:07.001Z,2.67
2023-04-04T15:39:52.269Z,3.52
2023-04-04T15:42:17.261Z,3.67
2023-04-04T15:44:51.742Z,5.60
2023-04-04T15:47:24.552Z,4.60
2023-04-04T15:49:57.426Z,3.33
2023-04-04T15:52:30.924Z,4.42
2023-04-04T15:55:04.932Z,4.40
2023-04-04T15:57:38.613Z,4.78
2023-04-04T16:00:13.725Z,4.70
2023-04-04T16:02:48.560Z,3.17
2023-04-04T16:05:21.880Z,4.43
2023-04-04T16:07:55.248Z,4.70
2023-04-04T16:10:28.781Z,3.15
2023-04-04T16:13:01.978Z,3.45
2023-04-04T16:15:35.558Z,3.80
2023-04-04T16:18:09.142Z,5.47
2023-04-04T16:20:42.715Z,4.50
2023-04-04T16:23:16.378Z,5.28
2023-04-04T16:25:51.647Z,4.20
2023-04-04T16:28:24.671Z,4.78
2023-04-04T16:31:00.007Z,3.45
2023-04-04T16:33:34.191Z,3.70
2023-04-04T16:36:07.885Z,4.25
2023-04-04T16:41:13.635Z,3.58
2023-04-04T16:43:49.570Z,4.03
2023-04-04T16:46:23.069Z,2.83
2023-04-04T16:48:58.024Z,2.12
2023-04-04T16:54:05.305Z,4.05
2023-04-04T16:56:39.149Z,5.37
2023-04-04T17:01:47.295Z,6.45
2023-04-04T17:04:20.980Z,6.22
2023-04-04T17:06:55.146Z,5.60
2023-04-04T17:09:28.387Z,4.22
2023-04-04T17:12:03.552Z,3.50
2023-04-04T17:14:37.572Z,3.60
2023-04-04T17:17:10.832Z,4.25
2023-04-04T17:19:44.908Z,4.70
2023-04-04T17:24:50.719Z,6.45
2023-04-04T17:27:23.997Z,5.67
2023-04-04T17:29:57.501Z,5.12
2023-04-04T17:32:30.770Z,5.97
2023-04-04T17:35:03.817Z,19.48
2023-04-04T17:37:37.666Z,21.73
2023-04-04T17:40:11.797Z,22.45
2023-04-04T17:42:45.055Z,30.10
2023-04-04T17:45:19.833Z,23.98
2023-04-04T17:47:53.228Z,23.92
2023-04-04T17:50:26.652Z,20.12
2023-04-04T17:53:01.886Z,18.25
2023-04-04T17:55:35.719Z,7.80
2023-04-04T17:58:09.509Z,9.47
2023-04-04T18:00:42.648Z,4.92
2023-04-04T18:03:18.309Z,4.10
2023-04-04T18:05:52.965Z,4.42
2023-04-04T18:10:59.826Z,3.45
2023-04-04T18:13:33.573Z,4.25
2023-04-04T18:16:07.737Z,4.03
2023-04-04T18:18:42.374Z,3.85
2023-04-04T18:21:15.290Z,4.72
2023-04-04T18:26:22.419Z,5.20
2023-04-04T18:28:56.628Z,5.28
2023-04-04T18:31:29.833Z,5.75
2023-04-04T18:34:02.954Z,7.47
2023-04-04T18:39:09.429Z,20.35
2023-04-04T18:41:43.418Z,17.52
2023-04-04T18:44:17.233Z,15.53
2023-04-04T18:46:52.067Z,11.18
2023-04-04T18:49:25.040Z,7.42
2023-04-04T18:51:58.503Z,5.50
2023-04-04T18:54:32.225Z,8.20
2023-04-04T18:57:05.503Z,9.07
2023-04-04T18:59:38.943Z,9.03
2023-04-04T19:02:12.942Z,5.35
2023-04-04T19:04:48.586Z,4.95
2023-04-04T19:07:24.486Z,5.00
2023-04-04T19:09:58.634Z,5.40
2023-04-04T19:12:32.014Z,5.90
2023-04-04T19:15:07.249Z,5.90
2023-04-04T19:17:41.528Z,6.22
2023-04-04T19:20:15.109Z,6.70
2023-04-04T19:22:48.241Z,6.87
2023-04-04T19:25:22.053Z,7.28
2023-04-04T19:27:55.073Z,8.25
2023-04-04T19:30:48.780Z,8.05
2023-04-04T19:33:26.050Z,7.97
2023-04-04T19:36:03.114Z,8.48
2023-04-04T19:38:42.848Z,8.58
2023-04-04T19:41:23.371Z,9.15
2023-04-04T19:43:56.837Z,9.95
2023-04-04T19:46:33.249Z,9.85
2023-04-04T19:49:14.212Z,9.88
2023-04-04T19:51:56.206Z,12.05
2023-04-04T19:54:37.887Z,13.93
2023-04-04T19:57:18.829Z,13.83
2023-04-04T20:00:02.215Z,15.80
2023-04-04T20:02:50.721Z,19.17
2023-04-04T20:05:43.490Z,17.73
2023-04-04T20:08:17.138Z,20.02
2023-04-04T20:10:52.126Z,21.05
2023-04-04T20:13:25.884Z,21.40
2023-04-04T20:16:03.951Z,21.25
2023-04-04T20:18:39.820Z,18.62
2023-04-04T20:21:24.576Z,16.87
2023-04-04T20:24:10.984Z,16.77
2023-04-04T20:26:58.222Z,17.65
2023-04-04T20:29:38.033Z,15.78
2023-04-04T20:32:11.289Z,14.87
2023-04-04T20:34:50.746Z,16.97
2023-04-04T20:37:26.719Z,16.82
2023-04-04T20:40:06.341Z,18.55
2023-04-04T20:42:41.307Z,18.62
2023-04-04T20:45:31.915Z,17.80
2023-04-04T20:48:07.500Z,17.32
2023-04-04T20:50:44.340Z,17.57
2023-04-04T20:53:19.777Z,17.02
2023-04-04T20:55:54.347Z,15.48
2023-04-04T20:58:31.475Z,16.10
2023-04-04T21:01:04.724Z,16.70
2023-04-04T21:03:38.801Z,15.55
2023-04-04T21:06:17.748Z,15.95
2023-04-04T21:08:52.433Z,18.50
2023-04-04T21:11:30.823Z,19.25
2023-04-04T21:14:03.672Z,19.87
2023-04-04T21:16:38.549Z,16.40
2023-04-04T21:19:12.991Z,17.98
2023-04-04T21:21:46.159Z,14.80
2023-04-04T21:24:19.304Z,14.53
2023-04-04T21:26:52.375Z,14.28
2023-04-04T21:29:29.938Z,13.78
2023-04-04T21:32:04.130Z,13.43
2023-04-04T21:34:37.192Z,12.25
2023-04-04T21:37:11.968Z,11.80
2023-04-04T21:39:45.368Z,12.85
2023-04-04T21:42:19.866Z,12.53
2023-04-04T21:44:52.904Z,12.98
2023-04-04T21:47:25.638Z,12.05
2023-04-04T21:49:59.921Z,13.30
2023-04-04T21:52:33.197Z,12.13
2023-04-04T21:55:06.664Z,12.85
2023-04-04T22:00:13.960Z,12.68
2023-04-04T22:02:47.398Z,12.40
2023-04-04T22:05:23.826Z,12.33
2023-04-04T22:07:55.366Z,12.15
2023-04-04T22:10:29.823Z,12.50
2023-04-04T22:13:04.469Z,12.30
2023-04-04T22:15:38.862Z,12.28
2023-04-04T22:18:13.690Z,12.35
2023-04-04T22:20:51.171Z,12.53
2023-04-04T22:23:23.964Z,11.55
2023-04-04T22:25:56.926Z,11.88
2023-04-04T22:28:30.082Z,12.55
2023-04-04T22:31:04.607Z,12.47
2023-04-04T22:33:38.865Z,12.65
2023-04-04T22:36:11.973Z,11.65
2023-04-04T22:38:45.387Z,12.47
2023-04-04T22:41:18.150Z,13.35
2023-04-04T22:43:52.645Z,11.93
2023-04-04T22:46:26.961Z,12.65
2023-04-04T22:49:06.129Z,12.63
2023-04-04T22:51:40.701Z,12.93
2023-04-04T22:54:16.994Z,13.55
2023-04-04T22:56:50.513Z,11.95
2023-04-04T22:59:24.006Z,14.07
2023-04-04T23:01:58.048Z,13.10
2023-04-04T23:04:31.619Z,13.38
2023-04-04T23:07:04.543Z,13.30
2023-04-04T23:09:38.610Z,13.62
2023-04-04T23:12:11.944Z,13.53
2023-04-04T23:14:47.516Z,15.05
2023-04-04T23:17:20.351Z,14.15
2023-04-04T23:19:53.268Z,15.68
2023-04-04T23:22:27.164Z,14.55
2023-04-04T23:25:00.351Z,14.95
2023-04-04T23:27:33.843Z,14.53
2023-04-04T23:30:08.394Z,14.87
2023-04-04T23:32:42.597Z,14.70
2023-04-04T23:35:16.160Z,14.68
2023-04-04T23:37:49.021Z,15.05
2023-04-04T23:40:22.348Z,14.85
2023-04-04T23:42:56.076Z,14.93
2023-04-04T23:45:29.599Z,14.87
2023-04-04T23:48:03.191Z,15.15
2023-04-04T23:50:36.200Z,14.83
2023-04-04T23:53:09.216Z,15.18
2023-04-04T23:55:42.501Z,14.25
2023-04-04T23:58:17.247Z,15.28
